Terminal Aerodrome Forecast
Issued by NWS Charleston, WV

Current Version | Previous Version | Graphics & Text | Print | Product List | Glossary On
Versions: 1 2 3 4 5 6 7 8 9 10 11 12 13 14 15 16 17 18 19 20 21 22
000
FTUS41 KRLX 010200 AAA
TAFCRW
TAF AMD
KCRW 010253Z 0103/0124 32009KT P6SM BKN035 BKN080
     FM010700 33005KT P6SM BKN020
     FM011000 33004KT P6SM -SHRA OVC008
     FM011300 33004KT P6SM OVC015
     FM011500 33008KT P6SM BKN025
     FM011700 33010G16KT P6SM BKN035=

USA.gov is the U.S. government's official web portal to all federal, state and local government web resources and services.